Time;durP1;ratioP1;P1;durP2;ratioP2;P2;SDS_P1;SDS_P2;PMS_P1;PMS_P2;Temp;Humidity;BMP_temperature;BMP_pressure;BME280_temperature;BME280_humidity;BME280_pressure;Samples;Min_cycle;Max_cycle;Signal;HPM_P1;HPM_P2
2021/11/24 00:01:32;;;;;;;15.2;9;;;;;;;;;;;;;
2021/11/24 00:04:01;;;;;;;16.3;9.5;;;;;;;;;;;;;
2021/11/24 00:06:33;;;;;;;13.8;8.2;;;;;;;;;;;;;
2021/11/24 00:08:58;;;;;;;13.4;7.5;;;;;;;;;;;;;
2021/11/24 00:11:24;;;;;;;20.1;9.4;;;;;;;;;;;;;
2021/11/24 00:13:49;;;;;;;59.8;10.2;;;;;;;;;;;;;
2021/11/24 00:16:15;;;;;;;22.2;9.5;;;;;;;;;;;;;
2021/11/24 00:18:40;;;;;;;37.8;9.8;;;;;;;;;;;;;
2021/11/24 00:21:07;;;;;;;25.6;9.1;;;;;;;;;;;;;
2021/11/24 00:23:31;;;;;;;20.5;8.9;;;;;;;;;;;;;
2021/11/24 00:25:57;;;;;;;21.5;9;;;;;;;;;;;;;
2021/11/24 00:28:22;;;;;;;25.5;9.2;;;;;;;;;;;;;
2021/11/24 00:30:49;;;;;;;29.1;9.1;;;;;;;;;;;;;
2021/11/24 00:33:14;;;;;;;24.2;9.5;;;;;;;;;;;;;
2021/11/24 00:35:39;;;;;;;35.7;9.9;;;;;;;;;;;;;
2021/11/24 00:38:04;;;;;;;34.1;9.4;;;;;;;;;;;;;
2021/11/24 00:40:29;;;;;;;31.3;9;;;;;;;;;;;;;
2021/11/24 00:42:56;;;;;;;50.5;9.5;;;;;;;;;;;;;
2021/11/24 00:45:22;;;;;;;52.8;8;;;;;;;;;;;;;
2021/11/24 00:47:47;;;;;;;52.4;7.8;;;;;;;;;;;;;
2021/11/24 00:50:12;;;;;;;40.9;7.5;;;;;;;;;;;;;
2021/11/24 00:52:37;;;;;;;49.1;8.5;;;;;;;;;;;;;
2021/11/24 00:55:03;;;;;;;31.6;7.7;;;;;;;;;;;;;
2021/11/24 00:57:29;;;;;;;46.5;8;;;;;;;;;;;;;
2021/11/24 00:59:54;;;;;;;43.9;8.2;;;;;;;;;;;;;
2021/11/24 01:02:21;;;;;;;39.1;7.9;;;;;;;;;;;;;
2021/11/24 01:04:46;;;;;;;63.4;8.9;;;;;;;;;;;;;
2021/11/24 01:07:11;;;;;;;44.6;8.4;;;;;;;;;;;;;
2021/11/24 01:09:36;;;;;;;59.8;8.8;;;;;;;;;;;;;
2021/11/24 01:12:02;;;;;;;44.5;8.2;;;;;;;;;;;;;
2021/11/24 01:14:28;;;;;;;49.4;7.9;;;;;;;;;;;;;
2021/11/24 01:16:53;;;;;;;16.7;6.9;;;;;;;;;;;;;
2021/11/24 01:19:20;;;;;;;14.3;6.2;;;;;;;;;;;;;
2021/11/24 01:21:45;;;;;;;18.9;6.7;;;;;;;;;;;;;
2021/11/24 01:24:11;;;;;;;23.4;6.9;;;;;;;;;;;;;
2021/11/24 01:26:36;;;;;;;13.7;6.3;;;;;;;;;;;;;
2021/11/24 01:29:01;;;;;;;18.2;6.5;;;;;;;;;;;;;
2021/11/24 01:31:26;;;;;;;13.1;7.3;;;;;;;;;;;;;
2021/11/24 01:33:52;;;;;;;14.9;6.8;;;;;;;;;;;;;
2021/11/24 01:36:17;;;;;;;15.2;8;;;;;;;;;;;;;
2021/11/24 01:38:43;;;;;;;13.3;7;;;;;;;;;;;;;
2021/11/24 01:41:08;;;;;;;13.3;7.4;;;;;;;;;;;;;
2021/11/24 01:43:34;;;;;;;16.3;8.1;;;;;;;;;;;;;
2021/11/24 01:45:59;;;;;;;16.4;8.4;;;;;;;;;;;;;
2021/11/24 01:48:26;;;;;;;16.9;8.1;;;;;;;;;;;;;
2021/11/24 01:50:51;;;;;;;17.3;8.9;;;;;;;;;;;;;
2021/11/24 01:53:16;;;;;;;14.4;8.4;;;;;;;;;;;;;
2021/11/24 01:55:42;;;;;;;20.1;9.2;;;;;;;;;;;;;
2021/11/24 01:58:08;;;;;;;19.7;8.6;;;;;;;;;;;;;
2021/11/24 02:00:33;;;;;;;30.2;8.9;;;;;;;;;;;;;
2021/11/24 02:02:58;;;;;;;25.8;7.9;;;;;;;;;;;;;
2021/11/24 02:05:23;;;;;;;21.7;8.4;;;;;;;;;;;;;
2021/11/24 02:07:48;;;;;;;16.8;7.9;;;;;;;;;;;;;
2021/11/24 02:10:25;;;;;;;16.2;8.3;;;;;;;;;;;;;
2021/11/24 02:12:50;;;;;;;24.9;8.5;;;;;;;;;;;;;
2021/11/24 02:15:15;;;;;;;26.7;8.3;;;;;;;;;;;;;
2021/11/24 02:17:40;;;;;;;44.7;9.5;;;;;;;;;;;;;
2021/11/24 02:20:22;;;;;;;21.6;7.4;;;;;;;;;;;;;
2021/11/24 02:22:47;;;;;;;23.5;8.7;;;;;;;;;;;;;
2021/11/24 02:25:12;;;;;;;34.8;9.6;;;;;;;;;;;;;
2021/11/24 02:27:38;;;;;;;30.6;9.3;;;;;;;;;;;;;
2021/11/24 02:30:03;;;;;;;34.4;9.3;;;;;;;;;;;;;
2021/11/24 02:32:29;;;;;;;24.6;9.1;;;;;;;;;;;;;
2021/11/24 02:34:54;;;;;;;21.1;8.5;;;;;;;;;;;;;
2021/11/24 02:37:37;;;;;;;15;7.6;;;;;;;;;;;;;
2021/11/24 02:39:53;;;;;;;18.7;8.4;;;;;;;;;;;;;
2021/11/24 02:42:18;;;;;;;13.3;7.4;;;;;;;;;;;;;
2021/11/24 02:44:43;;;;;;;16.9;8.7;;;;;;;;;;;;;
2021/11/24 02:47:10;;;;;;;23.5;8.7;;;;;;;;;;;;;
2021/11/24 02:49:35;;;;;;;15.4;7.2;;;;;;;;;;;;;
2021/11/24 02:52:01;;;;;;;16.1;7.9;;;;;;;;;;;;;
2021/11/24 02:54:26;;;;;;;54.1;9.6;;;;;;;;;;;;;
2021/11/24 02:56:52;;;;;;;63.6;9.4;;;;;;;;;;;;;
2021/11/24 02:59:17;;;;;;;46.4;7.4;;;;;;;;;;;;;
2021/11/24 03:01:43;;;;;;;11.9;6.8;;;;;;;;;;;;;
2021/11/24 03:04:08;;;;;;;11.4;6.9;;;;;;;;;;;;;
2021/11/24 03:06:34;;;;;;;11.7;7.3;;;;;;;;;;;;;
2021/11/24 03:08:59;;;;;;;12.7;7.5;;;;;;;;;;;;;
2021/11/24 03:11:26;;;;;;;12.2;7.5;;;;;;;;;;;;;
2021/11/24 03:13:51;;;;;;;63.1;12.2;;;;;;;;;;;;;
2021/11/24 03:16:16;;;;;;;14;7.9;;;;;;;;;;;;;
2021/11/24 03:18:42;;;;;;;11.5;6.3;;;;;;;;;;;;;
2021/11/24 03:21:07;;;;;;;11.7;6.6;;;;;;;;;;;;;
2021/11/24 03:23:33;;;;;;;11.9;6.9;;;;;;;;;;;;;
2021/11/24 03:25:58;;;;;;;10.9;6.9;;;;;;;;;;;;;
2021/11/24 03:28:23;;;;;;;12;7.3;;;;;;;;;;;;;
2021/11/24 03:30:49;;;;;;;12.6;8.1;;;;;;;;;;;;;
2021/11/24 03:33:16;;;;;;;11.7;6.7;;;;;;;;;;;;;
2021/11/24 03:35:40;;;;;;;11.4;6.7;;;;;;;;;;;;;
2021/11/24 03:38:05;;;;;;;9.8;6.4;;;;;;;;;;;;;
2021/11/24 03:40:30;;;;;;;11.8;6.9;;;;;;;;;;;;;
2021/11/24 03:42:56;;;;;;;11.4;6;;;;;;;;;;;;;
2021/11/24 03:45:21;;;;;;;10.2;6.2;;;;;;;;;;;;;
2021/11/24 03:47:47;;;;;;;15.9;7.6;;;;;;;;;;;;;
2021/11/24 03:50:12;;;;;;;11.3;6.5;;;;;;;;;;;;;
2021/11/24 03:52:38;;;;;;;10.5;6.2;;;;;;;;;;;;;
2021/11/24 03:55:03;;;;;;;9.9;6.1;;;;;;;;;;;;;
2021/11/24 03:57:28;;;;;;;10.4;6.2;;;;;;;;;;;;;
2021/11/24 03:59:53;;;;;;;8.4;5.6;;;;;;;;;;;;;
2021/11/24 04:02:30;;;;;;;10.2;6.2;;;;;;;-0.89;92.82715;942.0416;;;;
2021/11/24 04:04:56;;;;;;;11.7;6.3;;;;;;;-1.14;95.72852;942.106;;;;
2021/11/24 04:07:25;;;;;;;9.7;5.7;;;;;;;-1.3;97.26855;942.1094;;;;
2021/11/24 04:09:50;;;;;;;13.5;6.1;;;;;;;-1.27;98.61914;942.0572;;;;
2021/11/24 04:12:21;;;;;;;11.6;6.9;;;;;;;-0.98;98.42188;942.0042;;;;
2021/11/24 04:14:51;;;;;;;15.1;7.3;;;;;;;-0.99;98.27539;941.926;;;;
2021/11/24 04:17:25;;;;;;;14.3;8.5;;;;;;;-0.99;98.41992;941.9635;;;;
2021/11/24 04:19:50;;;;;;;11.4;6.1;;;;;;;-1.09;98.95215;941.9942;;;;
2021/11/24 04:22:15;;;;;;;8.8;6.1;;;;;;;-1.3;99.45605;942.0063;;;;
2021/11/24 04:24:41;;;;;;;12.1;5.8;;;;;;;-1.3;100;941.9957;;;;
2021/11/24 04:35:46;;;;;;;10.4;6.1;;;;;;;-1.51;98.6084;941.9274;;;;
2021/11/24 04:39:10;;;;;;;9.7;6;;;;;;;-1.6;98.63184;941.8917;;;;
2021/11/24 04:41:40;;;;;;;10.5;6.2;;;;;;;-1.51;98.23047;941.8372;;;;
2021/11/24 04:44:05;;;;;;;10.1;5.5;;;;;;;-1.43;97.55078;941.8649;;;;
2021/11/24 04:46:34;;;;;;;10;5.6;;;;;;;-1.59;97.27051;941.8563;;;;
2021/11/24 04:48:59;;;;;;;13.8;6.6;;;;;;;-1.66;97.91992;941.8361;;;;
2021/11/24 04:51:27;;;;;;;12.5;6.5;;;;;;;-1.55;97.91113;941.8123;;;;
2021/11/24 04:58:56;;;;;;;12.7;6.8;;;;;;;-1.68;97.78027;941.791;;;;
2021/11/24 05:01:19;;;;;;;11;6.1;;;;;;;-1.75;98.39551;941.7507;;;;
2021/11/24 05:03:46;;;;;;;10.2;6.2;;;;;;;-1.69;99.10938;941.7859;;;;
2021/11/24 05:06:11;;;;;;;11.3;6.6;;;;;;;-1.56;98.92871;941.7477;;;;
2021/11/24 05:08:40;;;;;;;10.7;7;;;;;;;-1.53;98.54883;941.7534;;;;
2021/11/24 05:11:07;;;;;;;11.1;6.2;;;;;;;-1.5;97.90234;941.7375;;;;
2021/11/24 05:13:33;;;;;;;10.1;6.3;;;;;;;-1.6;97.47949;941.6965;;;;
2021/11/24 05:16:12;;;;;;;11.1;6.7;;;;;;;-1.62;97.59473;941.6922;;;;
2021/11/24 05:18:48;;;;;;;12.1;6.4;;;;;;;-1.67;97.92871;941.6245;;;;
2021/11/24 05:21:14;;;;;;;10.6;6.6;;;;;;;-1.58;97.7168;941.6102;;;;
2021/11/24 05:23:41;;;;;;;12.4;7.5;;;;;;;-1.6;97.58984;941.595;;;;
2021/11/24 05:26:11;;;;;;;13.1;7;;;;;;;-1.51;97.56445;941.6104;;;;
2021/11/24 05:28:38;;;;;;;9;5.9;;;;;;;-1.49;96.9248;941.6178;;;;
2021/11/24 05:31:06;;;;;;;9.9;5.8;;;;;;;-1.49;96.65918;941.5998;;;;
2021/11/24 05:33:36;;;;;;;8.7;5.5;;;;;;;-1.46;96.31152;941.5666;;;;
2021/11/24 05:36:01;;;;;;;9.2;5.6;;;;;;;-1.49;96.14844;941.5769;;;;
2021/11/24 05:38:31;;;;;;;9.5;5.1;;;;;;;-1.38;95.74023;941.5994;;;;
2021/11/24 05:40:57;;;;;;;9.9;6;;;;;;;-1.4;96.01367;941.5845;;;;
2021/11/24 05:43:29;;;;;;;10.3;5.8;;;;;;;-1.15;95.46875;941.5544;;;;
2021/11/24 05:46:25;;;;;;;8.7;5.6;;;;;;;-1.07;94.63574;941.5432;;;;
2021/11/24 05:48:24;;;;;;;10.1;6.4;;;;;;;-1.15;94.50684;941.59;;;;
2021/11/24 05:50:53;;;;;;;9.3;5.5;;;;;;;-1.19;93.99707;941.5499;;;;
2021/11/24 05:53:21;;;;;;;11.2;5.6;;;;;;;-1.23;93.10938;941.5388;;;;
2021/11/24 05:55:47;;;;;;;9.1;5.9;;;;;;;-1.26;93.00293;941.5278;;;;
2021/11/24 05:58:14;;;;;;;9.7;5.8;;;;;;;-1.29;92.71973;941.5308;;;;
2021/11/24 06:00:39;;;;;;;8.7;5.3;;;;;;;-1.3;92.87109;941.5336;;;;
2021/11/24 06:03:07;;;;;;;9.5;5.5;;;;;;;-1.43;93.28516;941.3984;;;;
2021/11/24 06:12:10;;;;;;;6.5;4.7;;;;;;;-1.12;91.58887;941.4961;;;;
2021/11/24 06:14:41;;;;;;;7.2;4.9;;;;;;;-1.08;91.09863;941.5316;;;;
2021/11/24 06:17:07;;;;;;;9.2;5.4;;;;;;;-1.18;91.44434;941.4507;;;;
2021/11/24 06:19:33;;;;;;;12;6.4;;;;;;;-1.23;91.76758;941.5156;;;;
2021/11/24 06:21:58;;;;;;;9.1;5.8;;;;;;;-1.11;91.1377;941.5283;;;;
2021/11/24 06:24:28;;;;;;;9.9;5.9;;;;;;;-0.97;90.16602;941.5552;;;;
2021/11/24 06:26:58;;;;;;;8.8;5.2;;;;;;;-0.91;89.54688;941.5343;;;;
2021/11/24 06:29:29;;;;;;;10.3;6;;;;;;;-0.86;88.7666;941.5159;;;;
2021/11/24 06:32:00;;;;;;;10.9;7.4;;;;;;;-0.95;88.90332;941.3951;;;;
2021/11/24 06:34:33;;;;;;;16.1;8.3;;;;;;;-0.96;89.44824;941.5098;;;;
2021/11/24 06:37:03;;;;;;;7.7;5.6;;;;;;;-0.94;88.62695;941.5732;;;;
2021/11/24 06:39:28;;;;;;;9.2;5.7;;;;;;;-0.9;88.39258;941.5645;;;;
2021/11/24 06:41:58;;;;;;;10.4;7.1;;;;;;;-1.02;88.72168;941.5558;;;;
2021/11/24 06:44:21;;;;;;;8.6;5.5;;;;;;;-1.04;88.39746;941.5377;;;;
2021/11/24 06:46:49;;;;;;;9.1;4.9;;;;;;;-1.15;88.03027;941.5978;;;;
2021/11/24 06:49:14;;;;;;;7.8;5.3;;;;;;;-1.14;88.13184;941.6303;;;;
2021/11/24 06:51:44;;;;;;;14.3;8.3;;;;;;;-1.11;88.16016;941.5311;;;;
2021/11/24 06:54:17;;;;;;;16.4;11.1;;;;;;;-1.12;88.44531;941.6124;;;;
2021/11/24 06:56:40;;;;;;;14.1;9.6;;;;;;;-1.05;88.60449;941.6668;;;;
2021/11/24 06:59:08;;;;;;;16.4;9.8;;;;;;;-1.03;89.06348;941.6583;;;;
2021/11/24 07:01:35;;;;;;;14.9;10;;;;;;;-1.14;89.1543;941.6193;;;;
2021/11/24 07:04:03;;;;;;;14.9;9;;;;;;;-1.07;89.6123;941.6825;;;;
2021/11/24 07:06:32;;;;;;;14.3;8.9;;;;;;;-1.06;89.81348;941.6785;;;;
2021/11/24 07:08:57;;;;;;;12.4;7.2;;;;;;;-1.14;90.1543;941.7099;;;;
2021/11/24 07:11:30;;;;;;;11.4;6.4;;;;;;;-1.12;90.19141;941.6111;;;;
2021/11/24 07:13:51;;;;;;;8.8;5.7;;;;;;;-1;89.81445;941.6443;;;;
2021/11/24 07:16:18;;;;;;;8.7;5.9;;;;;;;-0.89;89.47266;941.7036;;;;
2021/11/24 07:18:44;;;;;;;9.7;6.2;;;;;;;-1.02;90.14355;941.6861;;;;
2021/11/24 07:21:09;;;;;;;11.7;7.1;;;;;;;-0.82;91.36426;941.6909;;;;
2021/11/24 07:23:37;;;;;;;34.5;16.1;;;;;;;-0.05;93.10547;941.7148;;;;
2021/11/24 07:26:03;;;;;;;44.4;20;;;;;;;1.12;91.93164;941.7145;;;;
2021/11/24 07:28:30;;;;;;;50.6;20.6;;;;;;;2.32;86.02246;941.7006;;;;
2021/11/24 07:31:00;;;;;;;30.7;15;;;;;;;3.23;84.47559;941.6663;;;;
2021/11/24 07:33:29;;;;;;;9.8;6.4;;;;;;;3.97;81.05957;941.7446;;;;
2021/11/24 07:35:54;;;;;;;6.8;4.9;;;;;;;4.71;72.45996;941.6741;;;;
2021/11/24 07:38:21;;;;;;;6.4;4.5;;;;;;;5.22;68.99512;941.6292;;;;
2021/11/24 07:40:46;;;;;;;6.4;4.7;;;;;;;5.75;62.79004;941.6577;;;;
2021/11/24 07:43:13;;;;;;;10.1;4.8;;;;;;;5.23;63.24316;941.6742;;;;
2021/11/24 07:45:38;;;;;;;8.3;5;;;;;;;6.03;63.08008;941.6478;;;;
2021/11/24 07:48:06;;;;;;;12.9;6.4;;;;;;;6.47;59.98828;941.5599;;;;
2021/11/24 07:50:31;;;;;;;13.3;7.3;;;;;;;7.27;57.64355;941.5522;;;;
2021/11/24 07:52:58;;;;;;;9.9;7;;;;;;;7.43;55.56641;941.6004;;;;
2021/11/24 07:55:23;;;;;;;8.2;5.7;;;;;;;7.96;54.77344;941.558;;;;
2021/11/24 07:57:52;;;;;;;8;4.9;;;;;;;8.91;52.9707;941.4495;;;;
2021/11/24 08:00:17;;;;;;;11.4;6.7;;;;;;;6.9;56.68652;941.4528;;;;
2021/11/24 08:02:43;;;;;;;10.4;6.6;;;;;;;6.68;57.80078;941.4114;;;;
2021/11/24 08:05:08;;;;;;;11.6;7.6;;;;;;;8.31;54.46582;941.4242;;;;
2021/11/24 08:07:36;;;;;;;10.2;7.1;;;;;;;9.58;50.65039;941.3298;;;;
2021/11/24 08:10:00;;;;;;;12.5;7.5;;;;;;;11.19;46.94043;941.3166;;;;
2021/11/24 08:12:29;;;;;;;10;7.2;;;;;;;12.57;42.86816;941.2734;;;;
2021/11/24 08:14:54;;;;;;;10.1;7.7;;;;;;;10.88;44.64355;941.1818;;;;
2021/11/24 08:17:20;;;;;;;9.9;7;;;;;;;11.45;44.63379;941.187;;;;
2021/11/24 08:19:50;;;;;;;10.4;7;;;;;;;12.78;41.79883;941.1086;;;;
2021/11/24 08:22:15;;;;;;;9;6.5;;;;;;;13.42;40.61816;941.1233;;;;
2021/11/24 08:24:44;;;;;;;9;7.2;;;;;;;12.83;40.80469;941.0972;;;;
2021/11/24 08:27:09;;;;;;;10;7.3;;;;;;;12.63;42.38086;940.9928;;;;
2021/11/24 08:29:40;;;;;;;7.9;6.4;;;;;;;13.23;40.25684;941.0592;;;;
2021/11/24 08:32:05;;;;;;;6.8;5.5;;;;;;;11.86;43.79492;941.0172;;;;
2021/11/24 08:34:30;;;;;;;6.4;4.9;;;;;;;11.34;44.31445;940.9614;;;;
2021/11/24 08:36:55;;;;;;;8.3;5.9;;;;;;;9.85;48.04883;940.8881;;;;
2021/11/24 08:39:25;;;;;;;5.9;4.7;;;;;;;8.68;51.34082;940.8769;;;;
2021/11/24 08:41:50;;;;;;;4.9;4.3;;;;;;;6.82;57.40137;940.9228;;;;
2021/11/24 08:44:18;;;;;;;9.3;8.1;;;;;;;5.73;61.83789;940.9578;;;;
2021/11/24 08:46:43;;;;;;;12.1;9.1;;;;;;;4.83;65.68555;940.9172;;;;
2021/11/24 08:49:12;;;;;;;11;9.6;;;;;;;3.96;69.91504;940.8825;;;;
2021/11/24 08:51:42;;;;;;;9.9;8.9;;;;;;;3.88;71.37402;940.8083;;;;
2021/11/24 08:54:07;;;;;;;7.4;5.9;;;;;;;3.73;73.0918;940.7994;;;;
2021/11/24 08:56:34;;;;;;;5.8;4.3;;;;;;;3.55;74.91504;940.7486;;;;
2021/11/24 08:58:58;;;;;;;6.9;5;;;;;;;3.38;76.18652;940.7456;;;;
2021/11/24 09:01:29;;;;;;;7.7;5.9;;;;;;;3.16;77.01074;940.7143;;;;
2021/11/24 09:03:58;;;;;;;9.2;6.6;;;;;;;2.8;79.87402;940.7578;;;;
2021/11/24 09:06:23;;;;;;;9.8;6.9;;;;;;;2.69;81.87109;940.6685;;;;
2021/11/24 09:08:51;;;;;;;8.2;6.1;;;;;;;2.71;81.44824;940.6731;;;;
2021/11/24 09:11:17;;;;;;;8.9;6.8;;;;;;;2.67;81.35059;940.7035;;;;
2021/11/24 09:13:47;;;;;;;9.3;6.6;;;;;;;2.62;81.38672;940.7094;;;;
2021/11/24 09:16:29;;;;;;;11.1;6.7;;;;;;;2.47;82.1416;940.7271;;;;
2021/11/24 09:18:57;;;;;;;12.5;6.4;;;;;;;2.32;82.32617;940.666;;;;
2021/11/24 09:21:25;;;;;;;9.9;6.2;;;;;;;2.24;84.32617;940.6523;;;;
2021/11/24 09:23:58;;;;;;;10.5;6.9;;;;;;;2.18;85.54492;940.6814;;;;
2021/11/24 09:26:38;;;;;;;12.9;7;;;;;;;2.03;85.82813;940.662;;;;
2021/11/24 09:28:54;;;;;;;10.2;6.1;;;;;;;1.91;84.85059;940.6783;;;;
2021/11/24 09:31:25;;;;;;;6.7;5.5;;;;;;;1.86;84.17285;940.509;;;;
2021/11/24 09:33:50;;;;;;;8.2;5.5;;;;;;;1.82;85.66309;940.603;;;;
2021/11/24 09:36:20;;;;;;;9.8;5.8;;;;;;;1.86;84.64258;940.6049;;;;
2021/11/24 09:38:51;;;;;;;6.7;5.1;;;;;;;1.62;86.58398;940.5927;;;;
2021/11/24 09:41:16;;;;;;;8.6;5.6;;;;;;;1.7;85.37988;940.5209;;;;
2021/11/24 09:43:46;;;;;;;8.6;5.8;;;;;;;1.67;86.46094;940.5081;;;;
2021/11/24 09:46:11;;;;;;;8.6;5.5;;;;;;;1.7;86.17383;940.5005;;;;
2021/11/24 09:48:38;;;;;;;7.2;5.3;;;;;;;1.58;87.22363;940.4475;;;;
2021/11/24 09:51:04;;;;;;;7.4;5;;;;;;;1.74;86.56543;940.344;;;;
2021/11/24 09:53:33;;;;;;;8.1;5.2;;;;;;;1.9;85.69043;940.3524;;;;
2021/11/24 09:55:58;;;;;;;7.8;5;;;;;;;1.93;85.75391;940.2877;;;;
2021/11/24 09:58:25;;;;;;;6.5;4.8;;;;;;;1.83;86.95117;940.2697;;;;
2021/11/24 10:00:50;;;;;;;9.2;5.4;;;;;;;1.93;86.30176;940.2531;;;;
2021/11/24 10:03:19;;;;;;;6.7;5.1;;;;;;;2.05;85.3291;940.1714;;;;
2021/11/24 10:05:44;;;;;;;7.1;5;;;;;;;2.12;85.90332;940.1542;;;;
2021/11/24 10:08:11;;;;;;;5.6;4.3;;;;;;;2.07;84.53809;940.0655;;;;
2021/11/24 10:10:36;;;;;;;6.8;4.9;;;;;;;2.13;85.26563;940.0005;;;;
2021/11/24 10:13:05;;;;;;;4.9;4.1;;;;;;;2.2;84.36426;939.9769;;;;
2021/11/24 10:15:39;;;;;;;6;4.4;;;;;;;2.26;84.30566;939.9922;;;;
2021/11/24 10:18:08;;;;;;;6.1;4.4;;;;;;;2.39;83.58398;939.9871;;;;
2021/11/24 10:20:33;;;;;;;5.8;4.3;;;;;;;;;;;;;
2021/11/24 10:22:58;;;;;;;5.2;3.9;;;;;;;;;;;;;
2021/11/24 10:25:24;;;;;;;5.9;4.1;;;;;;;;;;;;;
2021/11/24 10:27:52;;;;;;;4.8;3.8;;;;;;;;;;;;;
2021/11/24 10:30:17;;;;;;;5.6;4.4;;;;;;;;;;;;;
2021/11/24 10:32:44;;;;;;;5.4;4.1;;;;;;;;;;;;;
2021/11/24 10:35:08;;;;;;;5.1;3.8;;;;;;;;;;;;;
2021/11/24 10:37:34;;;;;;;5.7;4.1;;;;;;;;;;;;;
2021/11/24 10:39:59;;;;;;;4.8;3.8;;;;;;;;;;;;;
2021/11/24 10:42:25;;;;;;;6.3;4.1;;;;;;;;;;;;;
2021/11/24 10:44:51;;;;;;;5.8;4.3;;;;;;;;;;;;;
2021/11/24 10:47:16;;;;;;;6.4;4.2;;;;;;;;;;;;;
2021/11/24 10:49:43;;;;;;;5.5;4.4;;;;;;;;;;;;;
2021/11/24 10:52:07;;;;;;;5.6;4.5;;;;;;;;;;;;;
2021/11/24 10:54:34;;;;;;;5.5;4;;;;;;;;;;;;;
2021/11/24 10:56:59;;;;;;;5.4;4.1;;;;;;;;;;;;;
2021/11/24 10:59:24;;;;;;;5.4;4.3;;;;;;;;;;;;;
2021/11/24 11:01:50;;;;;;;5.1;4.1;;;;;;;;;;;;;
2021/11/24 11:04:16;;;;;;;5.5;4.2;;;;;;;;;;;;;
2021/11/24 11:06:42;;;;;;;5.9;4.4;;;;;;;;;;;;;
2021/11/24 11:09:07;;;;;;;6.4;4.8;;;;;;;;;;;;;
2021/11/24 11:11:32;;;;;;;5.9;4;;;;;;;;;;;;;
2021/11/24 11:14:00;;;;;;;6.3;4.5;;;;;;;;;;;;;
2021/11/24 11:16:25;;;;;;;6.2;4.7;;;;;;;;;;;;;
2021/11/24 11:18:50;;;;;;;6.5;5.1;;;;;;;;;;;;;
2021/11/24 11:21:17;;;;;;;5.5;4.3;;;;;;;;;;;;;
2021/11/24 11:23:42;;;;;;;5.4;4.1;;;;;;;;;;;;;
2021/11/24 11:26:09;;;;;;;7;5;;;;;;;;;;;;;
2021/11/24 11:28:34;;;;;;;7.8;4.9;;;;;;;;;;;;;
2021/11/24 11:31:03;;;;;;;6.5;5.1;;;;;;;;;;;;;
2021/11/24 11:33:28;;;;;;;8;5.1;;;;;;;;;;;;;
2021/11/24 11:35:56;;;;;;;7.1;4.9;;;;;;;;;;;;;
2021/11/24 11:38:20;;;;;;;7.6;5.3;;;;;;;;;;;;;
2021/11/24 11:40:45;;;;;;;6.2;5.1;;;;;;;;;;;;;
2021/11/24 11:43:10;;;;;;;8.8;6;;;;;;;;;;;;;
2021/11/24 11:45:36;;;;;;;7.9;5.2;;;;;;;;;;;;;
2021/11/24 11:48:01;;;;;;;8.3;5.3;;;;;;;;;;;;;
2021/11/24 11:50:27;;;;;;;8.1;6.2;;;;;;;;;;;;;
2021/11/24 11:52:53;;;;;;;8.2;5.6;;;;;;;;;;;;;
2021/11/24 11:55:18;;;;;;;8.2;5.6;;;;;;;;;;;;;
2021/11/24 11:57:44;;;;;;;9.3;6.8;;;;;;;;;;;;;
2021/11/24 12:00:09;;;;;;;8.8;6.1;;;;;;;;;;;;;
2021/11/24 12:02:35;;;;;;;8.5;6.3;;;;;;;;;;;;;
2021/11/24 12:05:00;;;;;;;7.8;5.9;;;;;;;;;;;;;
2021/11/24 12:07:25;;;;;;;8;6.3;;;;;;;;;;;;;
2021/11/24 12:09:53;;;;;;;8.9;6.4;;;;;;;;;;;;;
2021/11/24 12:12:18;;;;;;;10.2;6.4;;;;;;;;;;;;;
2021/11/24 12:14:43;;;;;;;10.6;6.6;;;;;;;;;;;;;
2021/11/24 12:17:12;;;;;;;9.9;6.8;;;;;;;;;;;;;
2021/11/24 12:19:37;;;;;;;9.9;6.7;;;;;;;;;;;;;
2021/11/24 12:22:02;;;;;;;8.7;6.4;;;;;;;;;;;;;
2021/11/24 12:24:29;;;;;;;8.7;6.5;;;;;;;;;;;;;
2021/11/24 12:26:54;;;;;;;8.9;6.6;;;;;;;;;;;;;
2021/11/24 12:29:19;;;;;;;7.2;6.3;;;;;;;;;;;;;
2021/11/24 12:31:44;;;;;;;8.3;6.3;;;;;;;;;;;;;
2021/11/24 12:34:09;;;;;;;8.8;6.5;;;;;;;;;;;;;
2021/11/24 12:36:36;;;;;;;9.3;6.2;;;;;;;;;;;;;
2021/11/24 12:39:01;;;;;;;9.5;6.1;;;;;;;;;;;;;
2021/11/24 12:41:25;;;;;;;8.2;6.4;;;;;;;;;;;;;
2021/11/24 12:43:51;;;;;;;8.4;6.1;;;;;;;;;;;;;
2021/11/24 12:46:16;;;;;;;8.4;6.1;;;;;;;;;;;;;
2021/11/24 12:48:43;;;;;;;8.4;6.3;;;;;;;;;;;;;
2021/11/24 12:51:06;;;;;;;8.2;6.5;;;;;;;;;;;;;
2021/11/24 12:53:36;;;;;;;9.5;6.4;;;;;;;;;;;;;
2021/11/24 12:55:58;;;;;;;8.1;6.3;;;;;;;;;;;;;
2021/11/24 12:58:24;;;;;;;8;6.2;;;;;;;;;;;;;
2021/11/24 13:00:49;;;;;;;8.3;5.9;;;;;;;;;;;;;
2021/11/24 13:03:15;;;;;;;7.1;5.7;;;;;;;;;;;;;
2021/11/24 13:05:41;;;;;;;7.5;5.7;;;;;;;;;;;;;
2021/11/24 13:08:06;;;;;;;8.8;5.4;;;;;;;;;;;;;
2021/11/24 13:10:31;;;;;;;9;6.2;;;;;;;;;;;;;
2021/11/24 13:12:57;;;;;;;6.7;5.6;;;;;;;;;;;;;
2021/11/24 13:15:30;;;;;;;7.7;5.8;;;;;;;;;;;;;
2021/11/24 13:18:00;;;;;;;7.4;5.8;;;;;;;;;;;;;
2021/11/24 13:20:30;;;;;;;6.9;5.6;;;;;;;;;;;;;
2021/11/24 13:22:49;;;;;;;6.3;5;;;;;;;;;;;;;
2021/11/24 13:25:18;;;;;;;6.8;5.2;;;;;;;;;;;;;
2021/11/24 13:27:45;;;;;;;6.5;5;;;;;;;;;;;;;
2021/11/24 13:30:13;;;;;;;7.6;5.9;;;;;;;;;;;;;
2021/11/24 13:32:37;;;;;;;8.7;5.6;;;;;;;;;;;;;
2021/11/24 13:35:02;;;;;;;6.8;5.3;;;;;;;;;;;;;
2021/11/24 13:37:31;;;;;;;8.2;6.2;;;;;;;;;;;;;
2021/11/24 13:39:56;;;;;;;7.5;5.6;;;;;;;;;;;;;
2021/11/24 13:42:21;;;;;;;7.9;5.4;;;;;;;;;;;;;
2021/11/24 13:44:46;;;;;;;7.8;5.3;;;;;;;;;;;;;
2021/11/24 13:47:13;;;;;;;7.7;5.3;;;;;;;;;;;;;
2021/11/24 13:49:37;;;;;;;6.9;5.4;;;;;;;;;;;;;
2021/11/24 13:52:03;;;;;;;7.4;5.4;;;;;;;;;;;;;
2021/11/24 13:54:29;;;;;;;6.8;5.7;;;;;;;;;;;;;
2021/11/24 13:56:54;;;;;;;8.1;6;;;;;;;;;;;;;
2021/11/24 13:59:19;;;;;;;7;5.7;;;;;;;;;;;;;
2021/11/24 14:01:46;;;;;;;7.7;5.7;;;;;;;;;;;;;
2021/11/24 14:04:13;;;;;;;8.7;6.3;;;;;;;;;;;;;
2021/11/24 14:06:36;;;;;;;8.9;6.4;;;;;;;;;;;;;
2021/11/24 14:09:01;;;;;;;8.9;6.4;;;;;;;;;;;;;
2021/11/24 14:11:26;;;;;;;8.4;6.1;;;;;;;;;;;;;
2021/11/24 14:14:02;;;;;;;10.2;7.1;;;;;;;;;;;;;
2021/11/24 14:16:28;;;;;;;8.6;6.8;;;;;;;;;;;;;
2021/11/24 14:18:55;;;;;;;9;6.1;;;;;;;;;;;;;
2021/11/24 14:21:20;;;;;;;10;6.7;;;;;;;;;;;;;
2021/11/24 14:23:47;;;;;;;9;6.8;;;;;;;;;;;;;
2021/11/24 14:26:12;;;;;;;9.6;6.5;;;;;;;;;;;;;
2021/11/24 14:28:38;;;;;;;9.7;7;;;;;;;;;;;;;
2021/11/24 14:31:03;;;;;;;8.9;6.7;;;;;;;;;;;;;
2021/11/24 14:33:30;;;;;;;9.8;6.7;;;;;;;;;;;;;
2021/11/24 14:35:55;;;;;;;11.1;7.3;;;;;;;;;;;;;
2021/11/24 14:38:23;;;;;;;9.7;7.3;;;;;;;;;;;;;
2021/11/24 14:40:48;;;;;;;10.4;7.1;;;;;;;;;;;;;
2021/11/24 14:43:15;;;;;;;9.7;7.3;;;;;;;;;;;;;
2021/11/24 14:45:40;;;;;;;9.5;7.2;;;;;;;;;;;;;
2021/11/24 14:48:06;;;;;;;9.6;7.4;;;;;;;;;;;;;
2021/11/24 14:50:31;;;;;;;9.9;7;;;;;;;;;;;;;
2021/11/24 14:52:59;;;;;;;10.2;7.2;;;;;;;;;;;;;
2021/11/24 14:55:25;;;;;;;11.3;7.4;;;;;;;;;;;;;
2021/11/24 14:57:52;;;;;;;10.8;7.9;;;;;;;;;;;;;
2021/11/24 15:00:17;;;;;;;11.3;8.1;;;;;;;;;;;;;
2021/11/24 15:02:45;;;;;;;10.9;7.9;;;;;;;;;;;;;
2021/11/24 15:05:09;;;;;;;11.1;7.7;;;;;;;;;;;;;
2021/11/24 15:07:36;;;;;;;10.2;7.2;;;;;;;;;;;;;
2021/11/24 15:10:02;;;;;;;10.5;7.5;;;;;;;;;;;;;
2021/11/24 15:12:29;;;;;;;9.9;7.2;;;;;;;;;;;;;
2021/11/24 15:14:54;;;;;;;9.3;7.1;;;;;;;;;;;;;
2021/11/24 15:17:24;;;;;;;11;7.7;;;;;;;;;;;;;
2021/11/24 15:19:52;;;;;;;10.7;7.5;;;;;;;;;;;;;
2021/11/24 15:22:17;;;;;;;10.7;7.8;;;;;;;;;;;;;
2021/11/24 15:24:43;;;;;;;11.7;8.2;;;;;;;;;;;;;
2021/11/24 15:27:09;;;;;;;11.2;7.8;;;;;;;;;;;;;
2021/11/24 15:29:35;;;;;;;9.8;7.4;;;;;;;;;;;;;
2021/11/24 15:32:00;;;;;;;10.8;7.6;;;;;;;;;;;;;
2021/11/24 15:34:27;;;;;;;12.2;8.1;;;;;;;;;;;;;
2021/11/24 15:36:53;;;;;;;11.3;8.3;;;;;;;;;;;;;
2021/11/24 15:39:20;;;;;;;12.7;8.4;;;;;;;;;;;;;
2021/11/24 15:41:45;;;;;;;12;8.5;;;;;;;;;;;;;
2021/11/24 15:44:11;;;;;;;13.6;9.3;;;;;;;;;;;;;
2021/11/24 15:46:36;;;;;;;11.3;8.2;;;;;;;;;;;;;
2021/11/24 15:49:02;;;;;;;12.7;8.8;;;;;;;;;;;;;
2021/11/24 15:51:27;;;;;;;12.8;8.6;;;;;;;;;;;;;
2021/11/24 15:53:53;;;;;;;12.6;9.2;;;;;;;;;;;;;
2021/11/24 15:56:21;;;;;;;12.6;9;;;;;;;;;;;;;
2021/11/24 15:58:44;;;;;;;10.9;8.2;;;;;;;;;;;;;
2021/11/24 16:01:09;;;;;;;11.6;8;;;;;;;;;;;;;
2021/11/24 16:03:34;;;;;;;11.9;8.6;;;;;;;;;;;;;
2021/11/24 16:06:02;;;;;;;11.9;8.9;;;;;;;;;;;;;
2021/11/24 16:08:26;;;;;;;18.3;10.2;;;;;;;;;;;;;
2021/11/24 16:10:52;;;;;;;19.6;10.2;;;;;;;;;;;;;
2021/11/24 16:13:17;;;;;;;13;8.5;;;;;;;;;;;;;
2021/11/24 16:15:49;;;;;;;13.4;9.2;;;;;;;;;;;;;
2021/11/24 16:18:18;;;;;;;14.5;9.4;;;;;;;;;;;;;
2021/11/24 16:20:42;;;;;;;13.2;9.6;;;;;;;;;;;;;
2021/11/24 16:23:08;;;;;;;13.4;9.4;;;;;;;;;;;;;
2021/11/24 16:25:33;;;;;;;15.3;10.2;;;;;;;;;;;;;
2021/11/24 16:27:59;;;;;;;15.6;10.6;;;;;;;;;;;;;
2021/11/24 16:30:24;;;;;;;12.5;9.1;;;;;;;;;;;;;
2021/11/24 16:32:52;;;;;;;16.2;11.1;;;;;;;;;;;;;
2021/11/24 16:35:17;;;;;;;15.2;11.3;;;;;;;;;;;;;
2021/11/24 16:37:42;;;;;;;14.6;10.3;;;;;;;;;;;;;
2021/11/24 16:40:08;;;;;;;13.4;9.4;;;;;;;;;;;;;
2021/11/24 16:42:33;;;;;;;14.4;10.6;;;;;;;;;;;;;
2021/11/24 16:45:00;;;;;;;17.3;11.2;;;;;;;;;;;;;
2021/11/24 16:47:25;;;;;;;16.6;10.8;;;;;;;;;;;;;
2021/11/24 16:49:50;;;;;;;29.1;19.9;;;;;;;;;;;;;
2021/11/24 16:52:16;;;;;;;17.8;11.2;;;;;;;;;;;;;
2021/11/24 16:54:41;;;;;;;15.1;11;;;;;;;;;;;;;
2021/11/24 16:57:07;;;;;;;17.9;12.6;;;;;;;;;;;;;
2021/11/24 16:59:32;;;;;;;19.7;12.6;;;;;;;;;;;;;
2021/11/24 17:01:57;;;;;;;17;12.2;;;;;;;;;;;;;
2021/11/24 17:04:23;;;;;;;16;11.7;;;;;;;;;;;;;
2021/11/24 17:06:49;;;;;;;20.6;12.9;;;;;;;;;;;;;
2021/11/24 17:09:14;;;;;;;16.9;12;;;;;;;;;;;;;
2021/11/24 17:11:41;;;;;;;18.6;12.8;;;;;;;;;;;;;
2021/11/24 17:14:06;;;;;;;18;12.9;;;;;;;;;;;;;
2021/11/24 17:16:35;;;;;;;19.3;12.1;;;;;;;;;;;;;
2021/11/24 17:19:03;;;;;;;19;12.8;;;;;;;;;;;;;
2021/11/24 17:21:28;;;;;;;17;11.8;;;;;;;;;;;;;
2021/11/24 17:23:53;;;;;;;16.1;11.1;;;;;;;;;;;;;
2021/11/24 17:26:18;;;;;;;16.4;11.6;;;;;;;;;;;;;
2021/11/24 17:28:45;;;;;;;17.2;12.4;;;;;;;;;;;;;
2021/11/24 17:31:11;;;;;;;16.9;11.9;;;;;;;;;;;;;
2021/11/24 17:33:38;;;;;;;19;12.4;;;;;;;;;;;;;
2021/11/24 17:36:02;;;;;;;18.6;12.5;;;;;;;;;;;;;
2021/11/24 17:38:28;;;;;;;18.2;12.5;;;;;;;;;;;;;
2021/11/24 17:40:53;;;;;;;16.8;12.2;;;;;;;;;;;;;
2021/11/24 17:43:19;;;;;;;17.8;11.7;;;;;;;;;;;;;
2021/11/24 17:45:44;;;;;;;17;12.2;;;;;;;;;;;;;
2021/11/24 17:48:10;;;;;;;20.6;13;;;;;;;;;;;;;
2021/11/24 17:50:35;;;;;;;18.5;12.2;;;;;;;;;;;;;
2021/11/24 17:53:01;;;;;;;18.1;12;;;;;;;;;;;;;
2021/11/24 17:55:26;;;;;;;17.7;12.1;;;;;;;;;;;;;
2021/11/24 17:57:52;;;;;;;19.1;12.7;;;;;;;;;;;;;
2021/11/24 18:00:17;;;;;;;20.1;13.9;;;;;;;;;;;;;
2021/11/24 18:02:43;;;;;;;19;13.6;;;;;;;;;;;;;
2021/11/24 18:05:08;;;;;;;18.5;13.2;;;;;;;;;;;;;
2021/11/24 18:07:34;;;;;;;21;13.8;;;;;;;;;;;;;
2021/11/24 18:09:59;;;;;;;19.4;14.3;;;;;;;;;;;;;
2021/11/24 18:12:26;;;;;;;20.6;12.2;;;;;;;;;;;;;
2021/11/24 18:14:52;;;;;;;19.9;13.2;;;;;;;;;;;;;